TAF Text Data
IDs:
Format:
Raw Decoded Include METAR

Data at: 0231 UTC 29 May 2022

KPDK 282338Z 2900/2924 30006KT P6SM FEW050
  FM290200 VRB02KT P6SM FEW250
  FM291500 13006KT P6SM FEW045